Time,TemperatureF,DewpointF,PressureIn,WindDirection,WindDirectionDegrees,WindSpeedMPH,WindSpeedGustMPH,Humidity,HourlyPrecipIn,Conditions,Clouds,dailyrainin,SolarRadiationWatts/m^2,SoftwareType,DateUTC
2013-08-18 00:00:00,71.0,62.0,-100.00,SE,127,0.0,-999.0,72,0.00,,,0.00,1.000000,,2013-08-18 05:00:00,
2013-08-18 00:43:00,71.0,62.0,-100.00,SE,127,0.0,-999.0,72,0.00,,,0.00,1.000000,,2013-08-18 05:43:00,
2013-08-18 00:52:00,71.0,62.0,-100.00,SE,127,0.0,-999.0,72,0.00,,,0.00,1.000000,,2013-08-18 05:52:00,
2013-08-18 02:00:00,71.0,63.0,-100.00,NNE,16,0.0,-999.0,76,0.00,,,0.00,1.000000,,2013-08-18 07:00:00,
2013-08-18 02:42:00,71.0,63.0,-100.00,NNE,16,0.0,-999.0,76,0.00,,,0.00,1.000000,,2013-08-18 07:42:00,
2013-08-18 02:52:00,71.0,63.0,-100.00,NNE,16,0.0,-999.0,76,0.00,,,0.00,1.000000,,2013-08-18 07:52:00,
2013-08-18 09:00:00,75.0,64.0,-100.00,NE,35,0.0,-999.0,71,0.00,,,0.00,349.000000,,2013-08-18 14:00:00,
2013-08-18 09:42:00,75.0,64.0,-100.00,NE,35,0.0,-999.0,71,0.00,,,0.00,349.000000,,2013-08-18 14:42:00,
2013-08-18 09:53:00,75.0,64.0,-100.00,NE,35,0.0,-999.0,71,0.00,,,0.00,349.000000,,2013-08-18 14:53:00,
2013-08-18 10:00:00,76.0,66.0,-100.00,NW,310,1.0,-999.0,72,0.00,,,0.00,554.000000,,2013-08-18 15:00:00,
2013-08-18 10:43:00,76.0,66.0,-100.00,NW,310,1.0,-999.0,72,0.00,,,0.00,554.000000,,2013-08-18 15:43:00,
2013-08-18 10:54:00,76.0,66.0,-100.00,NW,310,1.0,-999.0,72,0.00,,,0.00,554.000000,,2013-08-18 15:54:00,
2013-08-18 11:00:00,78.0,64.0,-100.00,NW,310,1.0,-999.0,62,0.00,,,0.00,663.000000,,2013-08-18 16:00:00,
2013-08-18 11:42:00,78.0,64.0,-100.00,NW,310,1.0,-999.0,62,0.00,,,0.00,663.000000,,2013-08-18 16:42:00,
2013-08-18 11:52:00,78.0,64.0,-100.00,NW,310,1.0,-999.0,62,0.00,,,0.00,663.000000,,2013-08-18 16:52:00,
2013-08-18 12:00:00,80.0,64.0,-100.00,East,83,0.0,-999.0,58,0.00,,,0.00,756.000000,,2013-08-18 17:00:00,
2013-08-18 12:43:00,80.0,64.0,-100.00,East,83,0.0,-999.0,58,0.00,,,0.00,756.000000,,2013-08-18 17:43:00,
2013-08-18 12:52:00,80.0,64.0,-100.00,East,83,0.0,-999.0,58,0.00,,,0.00,756.000000,,2013-08-18 17:52:00,
2013-08-18 13:00:00,81.0,63.0,-100.00,NW,306,1.0,-999.0,53,0.00,,,0.00,643.000000,,2013-08-18 18:00:00,
2013-08-18 13:42:00,81.0,63.0,-100.00,NW,306,1.0,-999.0,53,0.00,,,0.00,643.000000,,2013-08-18 18:42:00,
2013-08-18 13:52:00,81.0,63.0,-100.00,NW,306,1.0,-999.0,53,0.00,,,0.00,643.000000,,2013-08-18 18:52:00,
2013-08-18 14:00:00,83.0,61.0,-100.00,ESE,105,0.0,-999.0,47,0.00,,,0.00,585.000000,,2013-08-18 19:00:00,
2013-08-18 14:42:00,83.0,61.0,-100.00,ESE,105,0.0,-999.0,47,0.00,,,0.00,585.000000,,2013-08-18 19:42:00,
2013-08-18 14:52:00,83.0,61.0,-100.00,ESE,105,0.0,-999.0,47,0.00,,,0.00,585.000000,,2013-08-18 19:52:00,
2013-08-18 15:00:00,85.0,58.0,-100.00,WNW,297,0.0,-999.0,40,0.00,,,0.00,788.000000,,2013-08-18 20:00:00,
2013-08-18 15:42:00,85.0,58.0,-100.00,WNW,297,0.0,-999.0,40,0.00,,,0.00,788.000000,,2013-08-18 20:42:00,
2013-08-18 15:52:00,85.0,58.0,-100.00,WNW,297,0.0,-999.0,40,0.00,,,0.00,788.000000,,2013-08-18 20:52:00,
2013-08-18 16:00:00,87.0,59.0,-100.00,SSW,196,1.0,-999.0,38,0.00,,,0.00,601.000000,,2013-08-18 21:00:00,
2013-08-18 16:42:00,87.0,59.0,-100.00,SSW,196,1.0,-999.0,38,0.00,,,0.00,601.000000,,2013-08-18 21:42:00,
2013-08-18 16:53:00,87.0,59.0,-100.00,SSW,196,1.0,-999.0,38,0.00,,,0.00,601.000000,,2013-08-18 21:53:00,
2013-08-18 17:00:00,84.0,62.0,-100.00,South,182,1.0,-999.0,47,0.00,,,0.00,168.000000,,2013-08-18 22:00:00,
2013-08-18 17:42:00,84.0,62.0,-100.00,South,182,1.0,-999.0,47,0.00,,,0.00,168.000000,,2013-08-18 22:42:00,
2013-08-18 17:52:00,84.0,62.0,-100.00,South,182,1.0,-999.0,47,0.00,,,0.00,168.000000,,2013-08-18 22:52:00,
2013-08-18 18:00:00,85.0,58.0,-100.00,SSW,205,2.0,-999.0,40,0.00,,,0.00,255.000000,,2013-08-18 23:00:00,
2013-08-18 18:42:00,85.0,58.0,-100.00,SSW,205,2.0,-999.0,40,0.00,,,0.00,255.000000,,2013-08-18 23:42:00,
2013-08-18 18:52:00,85.0,58.0,-100.00,SSW,205,2.0,-999.0,40,0.00,,,0.00,255.000000,,2013-08-18 23:52:00,
2013-08-18 19:00:00,84.0,62.0,-100.00,South,179,0.0,-999.0,47,0.00,,,0.00,69.000000,,2013-08-19 00:00:00,
2013-08-18 19:42:00,84.0,62.0,-100.00,South,179,0.0,-999.0,47,0.00,,,0.00,69.000000,,2013-08-19 00:42:00,
2013-08-18 19:52:00,84.0,62.0,-100.00,South,179,0.0,-999.0,47,0.00,,,0.00,69.000000,,2013-08-19 00:52:00,
2013-08-18 20:00:00,81.0,62.0,-100.00,NE,45,0.0,-999.0,52,0.00,,,0.00,14.000000,,2013-08-19 01:00:00,
2013-08-18 20:42:00,81.0,62.0,-100.00,NE,45,0.0,-999.0,52,0.00,,,0.00,14.000000,,2013-08-19 01:42:00,
2013-08-18 20:52:00,81.0,62.0,-100.00,NE,45,0.0,-999.0,52,0.00,,,0.00,14.000000,,2013-08-19 01:52:00,
2013-08-18 21:00:00,78.0,62.0,-100.00,ESE,113,1.0,-999.0,57,0.00,,,0.00,1.000000,,2013-08-19 02:00:00,
2013-08-18 21:42:00,78.0,62.0,-100.00,ESE,113,1.0,-999.0,57,0.00,,,0.00,1.000000,,2013-08-19 02:42:00,
2013-08-18 21:52:00,78.0,62.0,-100.00,ESE,113,1.0,-999.0,57,0.00,,,0.00,1.000000,,2013-08-19 02:52:00,
2013-08-18 22:00:00,76.0,62.0,-100.00,SSE,165,1.0,-999.0,62,0.00,,,0.00,1.000000,,2013-08-19 03:00:00,
2013-08-18 22:42:00,76.0,62.0,-100.00,SSE,165,1.0,-999.0,62,0.00,,,0.00,1.000000,,2013-08-19 03:42:00,
2013-08-18 22:53:00,76.0,62.0,-100.00,SSE,165,1.0,-999.0,62,0.00,,,0.00,1.000000,,2013-08-19 03:53:00,